• Join FlightAware (Why Join?)
  • Login
  • US Flag 
03:46AM EDT


 

Airport Tracker/Info


-or-


 

Live Flight TrackerFlight Track Log ✈ RPA3161 ✈ 24-Jun-2013 ✈ KBTV - KDCA

Flight Track Log - Related Links

Times and Time Zones

All times are in EDT time to prevent confusion due to time zone crossing. See the RPA3161 flight status page for this flight to view local times or setup timezone preferences in your user account.

Time Position Orientation Groundspeed Altitude Reporting Facility
EDT Latitude Longitude Course Direction KTS MPH feet Rate Location/Type
12:42PM 44.3761 -73.1167 195° South 202 232 4,300  Level Boston Center
12:43PM 44.1690 -73.2616 195° South  Level FlightAware Approximate
12:43PM 44.3114 -73.1219 183° South 230 265 7,300  Level Boston Center
12:44PM 44.0692 -73.2990 195° South  Level FlightAware Approximate
12:44PM 44.2258 -73.1614 198° South 248 285 10,000  Level Boston Center
12:45PM 43.9688 -73.3327 194° South  Level FlightAware Approximate
12:45PM 44.1406 -73.1372 169° South 311 358 12,000  Level Boston Center
12:46PM 43.8687 -73.3681 195° South  Level FlightAware Approximate
12:46PM 44.0511 -73.0986 163° South 317 365 15,000  Level Boston Center
12:47PM 43.7689 -73.4055 195° South  Level FlightAware Approximate
12:47PM 43.9639 -73.0572 161° South 324 373 17,300  Level Boston Center
12:48PM 43.8722 -73.0419 173° South 329 379 19,500 2,220 Climbing Boston Center
12:49PM 43.7783 -73.0642 190° South 335 386 21,800 2,100 Climbing Boston Center
12:50PM 43.6844 -73.0861 190° South 341 392 23,700 1,860 Climbing Boston Center
12:51PM 43.5883 -73.1022 187° South 352 405 25,900 1,860 Climbing Boston Center
12:52PM 43.4758 -73.1294 190° South 352 405 27,800 1,560 Climbing Boston Center
12:53PM 43.3944 -73.1486 190° South 352 405 29,100 1,080 Climbing Boston Center
12:54PM 43.2964 -73.1675 188° South 346 398 30,000 420 Climbing Boston Center
12:55PM 43.1919 -73.1892 189° South 363 418 30,000  Level Boston Center
12:56PM 43.0856 -73.2133 189° South 383 441 30,000  Level Boston Center
12:57PM 42.9792 -73.2347 188° South 388 447 30,000  Level Boston Center
12:58PM 42.8725 -73.2589 189° South 394 453 30,000  Level Boston Center
12:59PM 42.7664 -73.2686 184° South 389 448 30,000  Level Boston Center
01:00PM 42.6581 -73.2475 172° South 384 442 30,000  Level Boston Center
01:01PM 42.5394 -73.2319 174° South 389 448 30,000  Level Boston Center
01:02PM 42.4350 -73.2672 194° South 386 444 30,000  Level Boston Center
01:04PM 42.3306 -73.2994 193° South 386 444 30,000  Level Boston Center
01:05PM 42.2031 -73.3369 192° South 391 450 30,000  Level Boston Center
01:06PM 42.1050 -73.3553 188° South 391 450 30,000  Level Boston Center
01:07PM 41.9775 -73.3981 194° South 391 450 30,000  Level Boston Center
01:08PM 41.8731 -73.4242 191° South 391 450 30,000  Level Boston Center
01:09PM 41.7686 -73.4533 192° South 391 450 30,000  Level Boston Center
01:10PM 41.6642 -73.4822 192° South 391 450 30,000  Level Boston Center
01:11PM 41.5656 -73.5306 200° South 391 450 30,000  Level Boston Center
01:13PM 41.4617 -73.7361 236° Southwest 384 442 30,000  Level New York Center
01:14PM 41.4067 -73.8525 238° Southwest 389 448 30,000  Level New York Center
01:15PM 41.3475 -73.9686 236° Southwest 389 448 30,000  Level New York Center
01:16PM 41.2881 -74.0844 236° Southwest 383 441 30,000 -600 Level New York Center
01:17PM 41.2286 -74.1975 235° Southwest 383 441 28,900 -1,020 Descending New York Center
01:18PM 41.1644 -74.3181 235° Southwest 383 441 28,000 -480 Descending New York Center
01:19PM 41.1067 -74.4361 237° Southwest 378 435 28,000  Level New York Center
01:20PM 41.0489 -74.5514 236° Southwest 378 435 28,000  Level New York Center
01:21PM 40.9892 -74.6581 233° Southwest 378 435 28,000  Level New York Center
01:22PM 40.9314 -74.7672 235° Southwest 378 435 28,000  Level New York Center
01:23PM 40.8781 -74.8711 236° Southwest 378 435 28,000  Level New York Center
01:24PM 40.8219 -74.9803 236° Southwest 378 435 28,000  Level New York Center
01:25PM 40.7636 -75.0944 236° Southwest 378 435 28,000  Level New York Center
01:26PM 40.7053 -75.2058 235° Southwest 373 429 28,000  Level New York Center
01:27PM 40.6469 -75.3169 235° Southwest 373 429 28,000  Level New York Center
01:28PM 40.5886 -75.4278 235° Southwest 373 429 28,000  Level New York Center
01:29PM 40.5319 -75.5358 235° Southwest 373 429 28,000 -720 Level New York Center
01:30PM 40.4714 -75.6464 234° Southwest 373 429 26,600 -1,620 Descending New York Center
01:31PM 40.4147 -75.7542 235° Southwest 368 423 24,800 -1,800 Descending New York Center
01:32PM 40.3581 -75.8589 235° Southwest 363 418 23,100 -1,440 Descending New York Center
01:33PM 40.2972 -75.9633 233° Southwest 363 418 22,000 -600 Descending New York Center
01:34PM 40.2447 -76.0656 236° Southwest 363 418 22,000  Level New York Center
01:35PM 40.1881 -76.1672 234° Southwest 358 412 22,000  Level New York Center
01:36PM 40.1008 -76.2500 216° Southwest 353 406 22,000  Level New York Center
01:37PM 40.0072 -76.2886 198° South 349 402 22,000  Level New York Center
01:38PM 39.9158 -76.3303 199° South 349 402 22,000 -900 Level New York Center
01:39PM 39.8200 -76.3739 199° South 359 413 20,200 -2,100 Descending New York Center
01:40PM 39.7306 -76.4100 197° South 351 404 17,800 -2,340 Descending New York Center
01:42PM 39.5500 -76.5000 201° Southwest 320 368 13,300 -1,980 Descending Potomac TRACON
01:43PM 39.4667 -76.5333 197° South 315 362 11,900 -780 Descending Potomac TRACON
01:44PM 39.3833 -76.5667 197° South 314 361 11,900  Level Potomac TRACON
01:45PM 39.3000 -76.6000 197° South 315 362 11,900 -600 Level Potomac TRACON
01:46PM 39.2167 -76.6333 197° South 306 352 10,700 -960 Descending Potomac TRACON
01:47PM 39.1500 -76.6833 210° Southwest 283 326 10,000 -420 Descending Potomac TRACON
01:48PM 39.1000 -76.7500 226° Southwest 280 322 10,000 -540 Level Potomac TRACON
01:49PM 39.0333 -76.8167 218° Southwest 278 320 9,000 -1,140 Descending Potomac TRACON
01:50PM 38.9833 -76.8833 226° Southwest 274 315 7,800 -1,320 Descending Potomac TRACON
01:51PM 38.9667 -76.9667 256° West 264 304 6,400 -1,020 Descending Potomac TRACON
01:52PM 39.0000 -77.0500 297° West 235 270 5,800 -660 Descending Potomac TRACON
01:53PM 39.0333 -77.1000 311° West 181 208 5,200 -1,020 Descending Potomac TRACON
01:54PM 39.0667 -77.1500 311° West 189 217 3,900 -1,200 Descending Potomac TRACON
01:55PM 39.0333 -77.2000 229° Southwest 171 197 2,900 -480 Descending Potomac TRACON
01:56PM 38.9833 -77.1833 165° South 183 211 3,000 -360 Climbing Potomac TRACON
01:57PM 38.9500 -77.1333 131° Southeast 182 209 2,200 -780 Descending Potomac TRACON
01:58PM 38.9167 -77.1000 142° Southeast 178 205 1,600 -720 Descending Potomac TRACON